Time;durP1;ratioP1;P1;durP2;ratioP2;P2;SDS_P1;SDS_P2;PMS_P1;PMS_P2;Temp;Humidity;BMP_temperature;BMP_pressure;BME280_temperature;BME280_humidity;BME280_pressure;Samples;Min_cycle;Max_cycle;Signal;HPM_P1;HPM_P2
2021/11/30 00:01:24;;;;;;;2.15;0.40;;;4.30;99.90;;;;;;5031800;28;20043;-90
2021/11/30 00:03:50;;;;;;;7.28;1.48;;;4.30;99.90;;;;;;5031802;28;20061;-89
2021/11/30 00:06:16;;;;;;;3.47;0.60;;;4.40;99.90;;;;;;5031661;28;20040;-89
2021/11/30 00:08:42;;;;;;;3.28;0.40;;;4.40;99.90;;;;;;5031379;28;20082;-91
2021/11/30 00:11:10;;;;;;;2.75;0.50;;;4.30;99.90;;;;;;5012841;28;20041;-89
2021/11/30 00:13:38;;;;;;;2.95;0.50;;;4.20;99.90;;;;;;5012109;28;20156;-89
2021/11/30 00:16:04;;;;;;;5.47;0.90;;;4.20;99.90;;;;;;5029100;28;20040;-90
2021/11/30 00:18:35;;;;;;;3.50;0.68;;;4.30;99.90;;;;;;5015434;28;20038;-92
2021/11/30 00:21:02;;;;;;;;;;;4.30;99.90;;;;;;5015767;28;20076;-89
2021/11/30 00:23:28;;;;;;;6.30;1.50;;;4.30;99.90;;;;;;5031792;28;19954;-92
2021/11/30 00:25:54;;;;;;;5.68;2.00;;;4.30;99.90;;;;;;5015499;28;20033;-92
2021/11/30 00:28:20;;;;;;;9.13;3.28;;;4.30;99.90;;;;;;5015215;28;20037;-91
2021/11/30 00:30:47;;;;;;;6.65;2.55;;;4.30;99.90;;;;;;5015032;28;20045;-93
2021/11/30 00:33:13;;;;;;;7.75;2.92;;;4.30;99.90;;;;;;5015270;28;20087;-90
2021/11/30 00:35:38;;;;;;;13.80;4.43;;;4.30;99.90;;;;;;5015275;28;20041;-90
2021/11/30 00:38:05;;;;;;;10.60;4.10;;;4.30;99.90;;;;;;5014877;28;20029;-92
2021/11/30 00:40:33;;;;;;;10.50;4.53;;;4.20;99.90;;;;;;5014876;28;20040;-90
2021/11/30 00:43:00;;;;;;;12.73;4.68;;;4.20;99.90;;;;;;5014777;28;20056;-90
2021/11/30 00:45:35;;;;;;;11.93;5.45;;;4.30;99.90;;;;;;5014847;28;20607;-89
2021/11/30 00:48:07;;;;;;;10.52;4.85;;;4.30;99.90;;;;;;5015052;28;20072;-92
2021/11/30 00:50:34;;;;;;;14.65;6.38;;;4.30;99.90;;;;;;5012608;28;20042;-89
2021/11/30 00:52:59;;;;;;;13.25;5.35;;;4.30;99.90;;;;;;5034833;28;20029;-92
2021/11/30 00:55:25;;;;;;;12.55;5.00;;;4.20;99.90;;;;;;5034672;28;20563;-91
2021/11/30 00:57:51;;;;;;;15.93;4.47;;;4.30;99.90;;;;;;5034364;28;20059;-91
2021/11/30 01:00:19;;;;;;;12.25;4.95;;;4.30;99.90;;;;;;5028217;23;20061;-90
2021/11/30 01:02:48;;;;;;;10.50;5.03;;;4.20;99.90;;;;;;5015121;28;20037;-91
2021/11/30 01:05:16;;;;;;;14.00;4.78;;;4.30;99.90;;;;;;5014901;28;20125;-87
2021/11/30 01:07:44;;;;;;;9.27;3.97;;;4.20;99.90;;;;;;5030718;28;20037;-92
2021/11/30 01:10:16;;;;;;;10.55;3.78;;;4.20;99.90;;;;;;5010896;28;20145;-91
2021/11/30 01:12:42;;;;;;;12.18;4.45;;;4.20;99.90;;;;;;5011382;28;20026;-88
2021/11/30 01:15:23;;;;;;;9.50;3.72;;;4.20;99.90;;;;;;5011066;28;20029;-90
2021/11/30 01:17:50;;;;;;;8.65;3.38;;;4.10;99.90;;;;;;5028159;28;20040;-90
2021/11/30 01:20:17;;;;;;;13.70;4.72;;;4.10;99.90;;;;;;5011534;28;20466;-91
2021/11/30 01:22:43;;;;;;;9.68;3.60;;;4.10;99.90;;;;;;5027854;28;20069;-89
2021/11/30 01:25:10;;;;;;;11.50;3.90;;;4.10;99.90;;;;;;5028125;28;20030;-92
2021/11/30 01:27:36;;;;;;;9.93;4.05;;;4.10;99.90;;;;;;5011256;28;20068;-92
2021/11/30 01:30:04;;;;;;;7.43;2.65;;;4.10;99.90;;;;;;5027902;28;20077;-91
2021/11/30 01:32:30;;;;;;;11.60;3.72;;;4.00;99.90;;;;;;5010977;28;20041;-90
2021/11/30 01:34:56;;;;;;;8.43;3.00;;;4.00;99.90;;;;;;5027390;28;20022;-88
2021/11/30 01:37:27;;;;;;;15.05;4.63;;;4.00;99.90;;;;;;5026839;28;20057;-90
2021/11/30 01:39:55;;;;;;;15.40;4.45;;;4.00;99.90;;;;;;5010801;28;20083;-89
2021/11/30 01:42:21;;;;;;;17.42;4.13;;;3.90;99.90;;;;;;4994048;28;20068;-90
2021/11/30 01:44:51;;;;;;;18.83;5.75;;;3.90;99.90;;;;;;5027011;28;20026;-88
2021/11/30 01:47:35;;;;;;;18.90;5.22;;;3.90;99.90;;;;;;5028666;28;20110;-89
2021/11/30 01:50:05;;;;;;;19.33;5.45;;;3.80;99.90;;;;;;5011194;28;20072;-89
2021/11/30 01:52:31;;;;;;;17.98;5.30;;;3.80;99.90;;;;;;5012606;28;20092;-90
2021/11/30 01:54:57;;;;;;;19.48;5.35;;;3.80;99.90;;;;;;5011154;28;20034;-91
2021/11/30 01:57:25;;;;;;;22.73;4.85;;;3.70;99.90;;;;;;5012036;28;20626;-88
2021/11/30 02:00:00;;;;;;;20.20;5.53;;;3.60;99.90;;;;;;5009953;28;20102;-91
2021/11/30 02:02:26;;;;;;;25.02;5.70;;;3.60;99.90;;;;;;5011700;28;20117;-91
2021/11/30 02:04:52;;;;;;;22.25;6.25;;;3.50;99.90;;;;;;5009188;28;20030;-91
2021/11/30 02:07:18;;;;;;;13.77;4.82;;;3.50;99.90;;;;;;5010895;28;20093;-88
2021/11/30 02:09:45;;;;;;;17.52;5.80;;;3.40;99.90;;;;;;4994937;28;20051;-88
2021/11/30 02:12:12;;;;;;;12.43;5.43;;;3.40;99.90;;;;;;5010552;28;20030;-91
2021/11/30 02:14:39;;;;;;;12.25;4.80;;;3.40;99.90;;;;;;5028279;28;20033;-91
2021/11/30 02:17:08;;;;;;;13.82;4.57;;;3.40;99.90;;;;;;5029186;28;20029;-89
2021/11/30 02:19:42;;;;;;;16.05;4.93;;;3.40;99.90;;;;;;5013744;28;20045;-90
2021/11/30 02:22:12;;;;;;;16.13;5.70;;;3.30;99.90;;;;;;5029552;28;20030;-91
2021/11/30 02:24:39;;;;;;;14.75;5.55;;;3.30;99.90;;;;;;5013316;28;20025;-88
2021/11/30 02:27:04;;;;;;;15.23;5.65;;;3.30;99.90;;;;;;5029024;28;20034;-89
2021/11/30 02:29:30;;;;;;;17.55;5.40;;;3.30;99.90;;;;;;5029524;28;20041;-89
2021/11/30 02:31:57;;;;;;;10.68;5.00;;;3.30;99.90;;;;;;5013005;28;20124;-94
2021/11/30 02:34:23;;;;;;;13.00;6.18;;;3.30;99.90;;;;;;5013345;28;20029;-90
2021/11/30 02:36:51;;;;;;;12.68;6.22;;;3.30;99.90;;;;;;5029235;28;20091;-91
2021/11/30 02:39:20;;;;;;;12.38;5.40;;;3.30;99.90;;;;;;5012623;28;20033;-92
2021/11/30 02:41:47;;;;;;;13.93;6.22;;;3.30;99.90;;;;;;5012656;28;20037;-87
2021/11/30 02:44:16;;;;;;;13.38;6.45;;;3.30;99.90;;;;;;5029090;28;20056;-89
2021/11/30 02:46:45;;;;;;;11.70;6.00;;;3.30;99.90;;;;;;5012656;28;20030;-89
2021/11/30 02:49:17;;;;;;;15.07;7.28;;;3.30;99.90;;;;;;5012327;28;20075;-92
2021/11/30 02:51:47;;;;;;;12.95;5.68;;;3.30;99.90;;;;;;5012412;28;20044;-90
2021/11/30 02:54:16;;;;;;;15.45;7.90;;;3.30;99.90;;;;;;5012597;28;20121;-92
2021/11/30 02:56:56;;;;;;;14.40;6.78;;;3.30;99.90;;;;;;5012463;28;20038;-91
2021/11/30 02:59:24;;;;;;;11.02;6.50;;;3.30;99.90;;;;;;5012223;28;20053;-91
2021/11/30 03:02:00;;;;;;;13.50;7.78;;;3.40;99.90;;;;;;5012504;28;20033;-90
2021/11/30 03:04:26;;;;;;;14.55;7.88;;;3.30;99.90;;;;;;5012256;28;20056;-92
2021/11/30 03:06:54;;;;;;;17.30;8.27;;;3.40;99.90;;;;;;5012240;28;20116;-88
2021/11/30 03:09:20;;;;;;;12.20;7.82;;;3.40;99.90;;;;;;5008998;28;20034;-88
2021/11/30 03:11:45;;;;;;;12.73;8.52;;;3.40;99.90;;;;;;5008580;28;20037;-90
2021/11/30 03:14:11;;;;;;;15.63;7.85;;;3.40;99.90;;;;;;5008786;28;20036;-91
2021/11/30 03:16:38;;;;;;;16.83;9.60;;;3.40;99.90;;;;;;5008978;28;20034;-90
2021/11/30 03:19:05;;;;;;;17.27;8.63;;;3.40;99.90;;;;;;5012042;28;20354;-90
2021/11/30 03:21:31;;;;;;;13.63;9.30;;;3.40;99.90;;;;;;5028790;28;20033;-92
2021/11/30 03:23:57;;;;;;;13.60;9.10;;;3.50;99.90;;;;;;5028737;28;20077;-92
2021/11/30 03:26:26;;;;;;;14.25;9.75;;;3.50;99.90;;;;;;5012462;28;20033;-89
2021/11/30 03:28:51;;;;;;;16.85;10.77;;;3.50;99.90;;;;;;5018814;28;20038;-90
2021/11/30 03:34:00;;;;;;;16.85;9.45;;;3.60;99.90;;;;;;5008731;28;20470;-90
2021/11/30 03:36:26;;;;;;;16.88;11.18;;;3.60;99.90;;;;;;5008987;28;20101;-88
2021/11/30 03:38:51;;;;;;;16.27;10.70;;;3.60;99.90;;;;;;5008446;28;20441;-91
2021/11/30 03:41:17;;;;;;;21.45;13.40;;;3.70;99.90;;;;;;4992598;28;20038;-89
2021/11/30 03:43:43;;;;;;;16.75;11.55;;;3.70;99.90;;;;;;4992617;28;20101;-89
2021/11/30 03:46:09;;;;;;;14.80;10.65;;;3.70;99.90;;;;;;5008933;28;20161;-92
2021/11/30 03:48:34;;;;;;;17.85;11.55;;;3.70;99.90;;;;;;4992362;28;20042;-89
2021/11/30 03:51:00;;;;;;;16.52;12.35;;;3.80;99.90;;;;;;5000547;28;20080;-89
2021/11/30 03:53:26;;;;;;;20.13;13.88;;;3.80;99.90;;;;;;5016052;28;20032;-91
2021/11/30 03:55:52;;;;;;;17.60;12.48;;;3.80;99.90;;;;;;5016106;28;20037;-89
2021/11/30 03:58:17;;;;;;;20.83;14.02;;;3.90;99.90;;;;;;5032124;28;20049;-89
2021/11/30 04:00:44;;;;;;;21.50;15.25;;;4.00;99.90;;;;;;5015699;28;20516;-92
2021/11/30 04:03:10;;;;;;;17.35;13.30;;;4.00;99.90;;;;;;5015392;28;20048;-89
2021/11/30 04:05:35;;;;;;;22.08;15.35;;;4.00;99.90;;;;;;5015649;28;20056;-90
2021/11/30 04:08:01;;;;;;;19.63;13.80;;;4.10;99.90;;;;;;4999414;28;20043;-91
2021/11/30 04:10:27;;;;;;;18.33;14.13;;;4.10;99.90;;;;;;5012479;28;20050;-91
2021/11/30 04:12:53;;;;;;;17.63;13.45;;;4.10;99.90;;;;;;5031814;28;20033;-88
2021/11/30 04:15:19;;;;;;;23.85;14.55;;;4.20;99.90;;;;;;5031937;28;20037;-88
2021/11/30 04:17:45;;;;;;;19.58;14.27;;;4.20;99.90;;;;;;5031891;28;20033;-91
2021/11/30 04:20:12;;;;;;;21.02;15.73;;;4.20;99.90;;;;;;5031737;28;20037;-91
2021/11/30 04:22:39;;;;;;;18.88;15.32;;;4.30;99.90;;;;;;5031546;28;20036;-90
2021/11/30 04:25:06;;;;;;;19.77;14.05;;;4.30;99.90;;;;;;5048364;28;20052;-89
2021/11/30 04:27:32;;;;;;;20.58;15.02;;;4.30;99.90;;;;;;5031428;28;20494;-89
2021/11/30 04:29:58;;;;;;;20.77;14.48;;;4.40;99.90;;;;;;5031522;28;20049;-88
2021/11/30 04:32:23;;;;;;;19.42;15.35;;;4.40;99.90;;;;;;5031729;28;20470;-88
2021/11/30 04:34:49;;;;;;;19.33;13.80;;;4.40;99.90;;;;;;5031394;28;20106;-90
2021/11/30 04:37:15;;;;;;;18.17;13.35;;;4.50;99.90;;;;;;5031389;28;20069;-91
2021/11/30 04:39:41;;;;;;;17.38;13.93;;;4.50;99.90;;;;;;5031332;28;20052;-89
2021/11/30 04:42:06;;;;;;;15.15;12.00;;;4.50;99.90;;;;;;5031455;28;20037;-90
2021/11/30 04:44:35;;;;;;;16.98;12.57;;;4.50;99.90;;;;;;5031497;28;20112;-90
2021/11/30 04:47:06;;;;;;;15.35;12.35;;;4.60;99.90;;;;;;5030961;28;20049;-91
2021/11/30 04:51:58;;;;;;;16.98;13.48;;;4.70;99.90;;;;;;5047656;28;20393;-89
2021/11/30 04:54:25;;;;;;;15.55;11.93;;;4.70;99.90;;;;;;5014985;28;20032;-89
2021/11/30 04:56:51;;;;;;;17.70;12.02;;;4.70;99.90;;;;;;5014585;28;20029;-89
2021/11/30 04:59:19;;;;;;;16.33;12.13;;;4.70;99.90;;;;;;5014320;28;20030;-90
2021/11/30 05:01:44;;;;;;;16.55;12.27;;;4.80;99.90;;;;;;5014282;28;20105;-88
2021/11/30 05:04:10;;;;;;;17.20;12.10;;;4.80;99.90;;;;;;5014580;28;20033;-88
2021/11/30 05:06:37;;;;;;;17.05;13.18;;;4.90;99.90;;;;;;5014338;28;20104;-88
2021/11/30 05:09:04;;;;;;;16.80;12.60;;;4.90;99.90;;;;;;5030868;28;20049;-89
2021/11/30 05:11:29;;;;;;;17.77;12.45;;;4.90;99.90;;;;;;5014328;28;20059;-89
2021/11/30 05:13:55;;;;;;;13.32;10.95;;;5.00;99.90;;;;;;5030538;28;20049;-89
2021/11/30 05:16:20;;;;;;;12.48;10.07;;;5.00;99.90;;;;;;5031034;28;20056;-88
2021/11/30 05:18:46;;;;;;;13.52;10.32;;;5.00;99.90;;;;;;5014326;28;20424;-90
2021/11/30 05:21:12;;;;;;;15.30;10.80;;;5.10;99.90;;;;;;5014231;28;20485;-90
2021/11/30 05:23:40;;;;;;;15.82;11.27;;;5.10;99.90;;;;;;5014410;28;20044;-90
2021/11/30 05:26:05;;;;;;;13.85;10.15;;;5.20;99.90;;;;;;5014117;28;20041;-91
2021/11/30 05:28:37;;;;;;;13.68;10.55;;;5.20;99.90;;;;;;5014063;28;20102;-89
2021/11/30 05:31:04;;;;;;;13.55;9.38;;;5.20;99.90;;;;;;5012958;28;20044;-89
2021/11/30 05:33:30;;;;;;;12.73;9.20;;;5.30;99.90;;;;;;5029982;28;20022;-90
2021/11/30 05:35:56;;;;;;;13.95;10.43;;;5.40;99.90;;;;;;5029903;28;20036;-91
2021/11/30 05:38:22;;;;;;;11.88;9.18;;;5.50;99.90;;;;;;5021574;28;20033;-90
2021/11/30 05:40:48;;;;;;;10.63;8.45;;;5.40;99.90;;;;;;5010287;28;20040;-90
2021/11/30 05:43:14;;;;;;;10.38;8.70;;;5.50;99.90;;;;;;5013426;28;20026;-92
2021/11/30 05:45:40;;;;;;;11.25;7.80;;;5.60;99.90;;;;;;5013657;28;20092;-92
2021/11/30 05:48:06;;;;;;;11.57;8.15;;;5.60;99.90;;;;;;5029661;28;20156;-93
2021/11/30 05:50:32;;;;;;;11.18;8.02;;;5.70;99.90;;;;;;5013563;28;20044;-92
2021/11/30 05:52:58;;;;;;;9.40;6.63;;;5.70;99.90;;;;;;5029665;28;20036;-90
2021/11/30 05:55:24;;;;;;;9.50;6.80;;;5.90;99.90;;;;;;5013692;28;20033;-91
2021/11/30 05:57:50;;;;;;;8.85;6.75;;;6.00;99.90;;;;;;5009789;28;20113;-92
2021/11/30 06:00:17;;;;;;;8.95;5.57;;;6.10;99.90;;;;;;5010991;28;20075;-92
2021/11/30 06:05:26;;;;;;;5.47;4.13;;;6.30;99.90;;;;;;5011724;28;20402;-93
2021/11/30 06:07:52;;;;;;;6.13;3.90;;;6.30;99.90;;;;;;5028599;28;20065;-93
2021/11/30 06:10:17;;;;;;;5.85;4.70;;;6.30;99.90;;;;;;5025929;28;20037;-91
2021/11/30 06:12:43;;;;;;;5.07;3.70;;;6.40;99.90;;;;;;5013596;28;20033;-92
2021/11/30 06:15:10;;;;;;;6.60;4.88;;;6.40;99.90;;;;;;5011897;28;20200;-90
2021/11/30 06:17:35;;;;;;;6.30;4.10;;;6.50;99.90;;;;;;5009211;28;20025;-93
2021/11/30 06:20:01;;;;;;;5.85;4.03;;;6.50;99.90;;;;;;5009534;28;20044;-92
2021/11/30 06:22:27;;;;;;;5.32;3.47;;;6.50;99.90;;;;;;5009501;28;20049;-92
2021/11/30 06:24:52;;;;;;;6.53;3.97;;;6.50;99.90;;;;;;5009650;28;20042;-92
2021/11/30 06:27:18;;;;;;;7.20;3.90;;;6.50;99.90;;;;;;5025873;28;20030;-91
2021/11/30 06:29:44;;;;;;;6.55;4.18;;;6.60;99.90;;;;;;5009305;28;20041;-91
2021/11/30 06:32:12;;;;;;;6.05;4.28;;;6.70;99.90;;;;;;5010844;28;20036;-92
2021/11/30 06:34:38;;;;;;;6.63;4.43;;;6.60;99.90;;;;;;5012934;28;20097;-92
2021/11/30 06:37:08;;;;;;;5.80;4.07;;;6.70;99.90;;;;;;5012720;28;20033;-93
2021/11/30 06:39:37;;;;;;;4.88;3.42;;;6.70;99.90;;;;;;5012533;28;20037;-94
2021/11/30 06:42:04;;;;;;;5.60;3.87;;;6.70;99.90;;;;;;5012982;28;20049;-92
2021/11/30 06:44:33;;;;;;;6.13;4.40;;;6.80;99.90;;;;;;5012560;28;20375;-92
2021/11/30 06:46:58;;;;;;;6.43;4.68;;;6.80;99.90;;;;;;5012581;28;20026;-92
2021/11/30 06:49:24;;;;;;;5.38;3.30;;;6.80;99.90;;;;;;5012542;28;20366;-92
2021/11/30 06:51:50;;;;;;;5.40;3.75;;;6.80;99.90;;;;;;4994049;28;20107;-91
2021/11/30 06:54:19;;;;;;;5.15;3.42;;;6.80;99.90;;;;;;5011193;28;20029;-90
2021/11/30 06:56:45;;;;;;;5.28;3.50;;;6.90;99.90;;;;;;5011084;28;20985;-90
2021/11/30 06:59:11;;;;;;;5.72;3.67;;;6.90;99.90;;;;;;5011311;28;20434;-90
2021/11/30 07:01:37;;;;;;;6.03;4.15;;;6.90;99.90;;;;;;5014893;28;20050;-89
2021/11/30 07:04:04;;;;;;;6.50;3.95;;;7.00;99.90;;;;;;5003706;28;20037;-91
2021/11/30 07:06:43;;;;;;;7.57;5.07;;;7.00;99.90;;;;;;5005627;28;20034;-91
2021/11/30 07:09:33;;;;;;;7.00;4.60;;;7.10;99.90;;;;;;5003933;28;20117;-91
2021/11/30 07:12:24;;;;;;;7.07;4.88;;;7.10;99.90;;;;;;5008001;28;20042;-90
2021/11/30 07:14:49;;;;;;;9.02;6.07;;;7.10;99.90;;;;;;5009319;28;20030;-90
2021/11/30 07:17:15;;;;;;;10.25;6.57;;;7.10;99.90;;;;;;5022398;28;20038;-91
2021/11/30 07:19:40;;;;;;;9.52;5.93;;;7.20;99.90;;;;;;5011469;28;20112;-91
2021/11/30 07:22:06;;;;;;;11.20;6.55;;;7.20;99.90;;;;;;5008988;28;20549;-90
2021/11/30 07:24:32;;;;;;;11.77;7.95;;;7.30;99.90;;;;;;5017797;28;20038;-88
2021/11/30 07:26:57;;;;;;;11.57;7.75;;;7.40;99.90;;;;;;5020332;28;20072;-87
2021/11/30 07:29:23;;;;;;;11.55;7.60;;;7.40;99.90;;;;;;5022135;28;20097;-89
2021/11/30 07:31:49;;;;;;;16.90;9.55;;;7.50;99.90;;;;;;5020815;28;20061;-88
2021/11/30 07:34:16;;;;;;;14.30;9.05;;;7.50;99.90;;;;;;5009264;28;20037;-87
2021/11/30 07:36:42;;;;;;;13.48;8.55;;;7.60;99.90;;;;;;5017864;28;20038;-87
2021/11/30 07:39:08;;;;;;;13.30;8.13;;;7.60;99.90;;;;;;5020422;28;20028;-86
2021/11/30 07:41:35;;;;;;;11.65;7.80;;;7.70;99.90;;;;;;5022353;23;20050;-85
2021/11/30 07:44:03;;;;;;;13.25;7.60;;;7.80;99.90;;;;;;5003611;28;20056;-84
2021/11/30 07:46:28;;;;;;;12.65;8.05;;;7.80;99.90;;;;;;4998682;28;20033;-86
2021/11/30 07:48:54;;;;;;;11.13;6.47;;;7.80;99.90;;;;;;5006678;28;20033;-86
2021/11/30 07:51:19;;;;;;;9.23;5.53;;;8.00;99.90;;;;;;4984641;28;20058;-85
2021/11/30 07:53:45;;;;;;;9.68;6.28;;;8.00;99.90;;;;;;5011581;28;20034;-84
2021/11/30 07:56:11;;;;;;;11.80;6.43;;;8.10;99.90;;;;;;5008628;28;20033;-85
2021/11/30 07:58:37;;;;;;;12.07;6.07;;;8.10;99.90;;;;;;5027982;28;20034;-83
2021/11/30 08:01:03;;;;;;;12.23;6.78;;;8.20;99.90;;;;;;5006361;28;20030;-85
2021/11/30 08:03:28;;;;;;;13.23;8.20;;;8.20;99.90;;;;;;5012142;28;20022;-85
2021/11/30 08:05:54;;;;;;;14.70;7.40;;;8.20;99.90;;;;;;4998723;28;20053;-85
2021/11/30 08:08:20;;;;;;;12.75;7.28;;;8.20;99.90;;;;;;5009626;28;20014;-86
2021/11/30 08:10:46;;;;;;;15.00;8.07;;;8.30;99.90;;;;;;5007537;28;20550;-85
2021/11/30 08:13:11;;;;;;;15.98;8.35;;;8.30;99.90;;;;;;5010434;28;20022;-86
2021/11/30 08:15:37;;;;;;;15.77;7.97;;;8.30;99.90;;;;;;5006033;28;20029;-84
2021/11/30 08:18:04;;;;;;;16.48;7.13;;;8.30;99.90;;;;;;5005486;28;20033;-84
2021/11/30 08:20:30;;;;;;;16.02;8.10;;;8.30;99.90;;;;;;5022441;28;20097;-84
2021/11/30 08:22:56;;;;;;;17.15;7.72;;;8.30;99.90;;;;;;5001757;28;20033;-84
2021/11/30 08:25:22;;;;;;;16.00;7.57;;;8.30;99.90;;;;;;5004549;28;20049;-85
2021/11/30 08:27:50;;;;;;;15.13;7.50;;;8.40;99.90;;;;;;5006207;28;20033;-85
2021/11/30 08:30:16;;;;;;;14.75;7.18;;;8.40;99.90;;;;;;5024294;28;20048;-84
2021/11/30 08:32:43;;;;;;;19.48;8.07;;;8.40;99.90;;;;;;5005562;28;20061;-83
2021/11/30 08:35:09;;;;;;;19.08;7.35;;;8.40;99.90;;;;;;4994865;28;20061;-85
2021/11/30 08:37:35;;;;;;;10.60;6.85;;;8.50;99.90;;;;;;5002316;28;20093;-84
2021/11/30 08:40:41;;;;;;;16.85;7.53;;;8.50;99.90;;;;;;5010547;28;20026;-85
2021/11/30 08:43:07;;;;;;;14.07;7.20;;;8.50;99.90;;;;;;4856446;29;20057;-84
2021/11/30 08:45:33;;;;;;;13.27;6.78;;;8.50;99.90;;;;;;4856209;29;20047;-84
2021/11/30 08:47:59;;;;;;;15.98;7.28;;;8.50;99.90;;;;;;4859357;29;20085;-83
2021/11/30 08:50:24;;;;;;;11.63;6.15;;;8.50;99.90;;;;;;4840980;29;20065;-85
2021/11/30 08:52:50;;;;;;;13.02;6.82;;;8.50;99.90;;;;;;4852192;29;20515;-85
2021/11/30 08:55:17;;;;;;;10.80;5.25;;;8.60;99.90;;;;;;4852851;29;20079;-85
2021/11/30 08:57:43;;;;;;;10.27;4.90;;;8.60;99.90;;;;;;4852083;29;20037;-85
2021/11/30 09:00:13;;;;;;;12.00;5.93;;;8.60;99.90;;;;;;4822060;29;20046;-84
2021/11/30 09:02:39;;;;;;;9.82;5.22;;;8.60;99.90;;;;;;4851072;29;20034;-85
2021/11/30 09:05:07;;;;;;;11.73;5.07;;;8.60;99.90;;;;;;4853172;29;20038;-86
2021/11/30 09:07:32;;;;;;;10.23;4.68;;;8.60;99.90;;;;;;4824064;29;20064;-86
2021/11/30 09:09:58;;;;;;;12.43;5.32;;;8.70;99.90;;;;;;4831115;29;20045;-85
2021/11/30 09:12:24;;;;;;;11.70;5.10;;;8.60;99.90;;;;;;4838143;29;20475;-85
2021/11/30 09:14:50;;;;;;;12.20;4.45;;;8.70;99.90;;;;;;4848452;29;20411;-85
2021/11/30 09:17:17;;;;;;;9.93;4.97;;;8.70;99.90;;;;;;4837154;29;20045;-83
2021/11/30 09:19:43;;;;;;;9.48;3.97;;;8.80;99.90;;;;;;4901359;28;20474;-86
2021/11/30 09:22:09;;;;;;;10.02;4.60;;;8.70;99.90;;;;;;5027881;28;20034;-85
2021/11/30 09:24:35;;;;;;;10.50;4.38;;;8.80;99.90;;;;;;5028635;28;20025;-85
2021/11/30 09:27:00;;;;;;;14.10;4.43;;;8.80;99.90;;;;;;5014789;28;20094;-86
2021/11/30 09:29:26;;;;;;;10.98;4.40;;;8.80;99.90;;;;;;5013624;28;20053;-84
2021/11/30 09:31:53;;;;;;;10.88;3.75;;;8.90;99.90;;;;;;5002572;28;20040;-85
2021/11/30 09:34:18;;;;;;;11.00;3.63;;;8.90;99.90;;;;;;5028443;28;20030;-86
2021/11/30 09:36:46;;;;;;;12.20;3.25;;;8.90;99.90;;;;;;5015172;28;20045;-87
2021/11/30 09:39:12;;;;;;;11.70;2.97;;;8.90;99.90;;;;;;5011861;28;20026;-85
2021/11/30 09:41:37;;;;;;;6.60;2.92;;;8.90;99.90;;;;;;5006789;28;20252;-85
2021/11/30 09:44:04;;;;;;;6.85;2.38;;;9.00;99.90;;;;;;5003063;28;20037;-86
2021/11/30 09:46:30;;;;;;;7.28;2.80;;;9.00;99.90;;;;;;5010017;28;20045;-84
2021/11/30 09:48:57;;;;;;;13.80;3.05;;;9.00;99.90;;;;;;5006850;28;20022;-86
2021/11/30 09:51:23;;;;;;;7.10;2.42;;;9.00;99.90;;;;;;5031825;28;20320;-86
2021/11/30 09:53:48;;;;;;;8.32;2.72;;;9.10;99.90;;;;;;5003848;28;20578;-86
2021/11/30 09:56:15;;;;;;;9.52;2.25;;;9.10;99.90;;;;;;5007175;28;20500;-88
2021/11/30 09:58:41;;;;;;;3.03;1.65;;;9.00;99.90;;;;;;5007443;28;20025;-87
2021/11/30 10:01:11;;;;;;;4.63;1.23;;;9.10;99.90;;;;;;5003744;28;20028;-84
2021/11/30 10:03:38;;;;;;;4.90;1.23;;;9.10;99.90;;;;;;5007696;28;20074;-85
2021/11/30 10:06:04;;;;;;;3.38;1.67;;;9.10;99.90;;;;;;5031276;28;20034;-85
2021/11/30 10:08:33;;;;;;;4.43;1.70;;;9.10;99.90;;;;;;4990849;28;20038;-83
2021/11/30 10:11:00;;;;;;;4.35;1.38;;;9.00;99.90;;;;;;4995641;28;20041;-82
2021/11/30 10:13:27;;;;;;;3.53;1.60;;;9.00;99.90;;;;;;5004468;28;20022;-83
2021/11/30 10:16:03;;;;;;;3.17;1.48;;;9.00;99.90;;;;;;5025268;28;20030;-82
2021/11/30 10:18:37;;;;;;;5.63;0.70;;;9.00;99.90;;;;;;5024699;28;20467;-83
2021/11/30 10:21:06;;;;;;;1.88;0.20;;;8.90;99.90;;;;;;5008287;28;20041;-82
2021/11/30 10:23:49;;;;;;;1.25;0.10;;;8.70;99.90;;;;;;5027403;28;20030;-81
2021/11/30 10:26:18;;;;;;;0.43;0.10;;;8.70;99.90;;;;;;5024338;28;20097;-82
2021/11/30 10:28:44;;;;;;;2.53;0.00;;;8.60;99.90;;;;;;4996638;28;20335;-81
2021/11/30 10:31:10;;;;;;;1.98;0.00;;;8.60;99.90;;;;;;5008919;28;20049;-82
2021/11/30 10:33:36;;;;;;;0.15;0.00;;;8.60;99.90;;;;;;5013399;28;20405;-82
2021/11/30 10:36:04;;;;;;;0.40;0.00;;;8.60;99.90;;;;;;5025047;28;20040;-82
2021/11/30 10:38:35;;;;;;;0.30;0.00;;;8.60;99.90;;;;;;5005330;28;20026;-82
2021/11/30 10:41:18;;;;;;;0.55;0.00;;;8.50;99.90;;;;;;5019821;28;20038;-82
2021/11/30 10:43:53;;;;;;;0.20;0.00;;;8.50;99.90;;;;;;5006995;28;20025;-82
2021/11/30 10:46:28;;;;;;;0.30;0.00;;;8.50;99.90;;;;;;5008654;28;20113;-81
2021/11/30 10:48:55;;;;;;;0.57;0.00;;;8.50;99.90;;;;;;5028409;28;20040;-82
2021/11/30 10:51:22;;;;;;;1.00;0.00;;;8.40;99.90;;;;;;5006211;28;20260;-81
2021/11/30 10:53:50;;;;;;;1.83;0.22;;;8.40;99.90;;;;;;5027215;28;20213;-81
2021/11/30 10:56:18;;;;;;;2.00;0.00;;;8.30;99.90;;;;;;5005330;28;20029;-81
2021/11/30 10:58:44;;;;;;;1.52;0.00;;;8.30;99.90;;;;;;5024016;28;20032;-82
2021/11/30 11:01:21;;;;;;;1.05;0.00;;;8.30;99.90;;;;;;5026681;28;20057;-81
2021/11/30 11:04:01;;;;;;;0.15;0.00;;;8.40;99.90;;;;;;5005216;28;20026;-81
2021/11/30 11:06:30;;;;;;;3.35;0.00;;;8.40;99.90;;;;;;5007341;28;20030;-81
2021/11/30 11:09:01;;;;;;;2.00;0.00;;;8.30;99.90;;;;;;4999586;28;20065;-81
2021/11/30 11:11:29;;;;;;;0.45;0.00;;;8.30;99.90;;;;;;5024008;28;20064;-82
2021/11/30 11:13:55;;;;;;;0.93;0.10;;;8.30;99.90;;;;;;4993412;28;20026;-82
2021/11/30 11:16:35;;;;;;;1.08;0.10;;;8.30;99.90;;;;;;5009176;28;20037;-81
2021/11/30 11:19:03;;;;;;;;;;;8.30;99.90;;;;;;4991138;28;20034;-82
2021/11/30 11:21:31;;;;;;;2.90;0.30;;;8.30;99.90;;;;;;5004953;28;19960;-81
2021/11/30 11:24:25;;;;;;;5.45;0.43;;;8.30;99.90;;;;;;4999855;28;20029;-82
2021/11/30 11:26:56;;;;;;;2.25;0.68;;;8.30;99.90;;;;;;4995940;28;20041;-81
2021/11/30 11:29:28;;;;;;;4.13;0.20;;;8.30;99.90;;;;;;5024027;28;20037;-81
2021/11/30 11:31:57;;;;;;;5.82;0.20;;;8.30;99.90;;;;;;5007931;28;20064;-83
2021/11/30 11:34:26;;;;;;;1.08;0.10;;;8.30;99.90;;;;;;5023094;28;20167;-82
2021/11/30 11:36:54;;;;;;;4.82;0.20;;;8.30;99.90;;;;;;4999907;28;20030;-82
2021/11/30 11:39:21;;;;;;;1.95;0.10;;;8.30;99.90;;;;;;5004983;28;20036;-82
2021/11/30 11:41:54;;;;;;;4.80;0.40;;;8.30;99.90;;;;;;5002591;28;20073;-81
2021/11/30 11:44:20;;;;;;;3.67;0.20;;;8.30;99.90;;;;;;4997299;28;20026;-81
2021/11/30 11:46:48;;;;;;;1.60;0.13;;;8.30;99.90;;;;;;5027137;28;20037;-81
2021/11/30 11:49:19;;;;;;;3.83;0.25;;;8.30;99.90;;;;;;5008431;28;20058;-82
2021/11/30 11:51:48;;;;;;;3.80;0.20;;;8.30;99.90;;;;;;5022802;28;20473;-82
2021/11/30 11:54:30;;;;;;;23.65;10.35;;;8.30;99.90;;;;;;5022034;28;20125;-82
2021/11/30 11:57:06;;;;;;;9.13;1.30;;;8.30;99.90;;;;;;5021023;28;20097;-82
2021/11/30 11:59:43;;;;;;;5.68;0.55;;;8.30;99.90;;;;;;5009351;28;20065;-82
2021/11/30 12:02:20;;;;;;;4.90;0.82;;;8.30;99.90;;;;;;5006400;28;20030;-82
2021/11/30 12:04:53;;;;;;;15.63;5.10;;;8.30;99.90;;;;;;5004331;28;20081;-82
2021/11/30 12:07:21;;;;;;;4.28;0.65;;;8.30;99.90;;;;;;4987418;28;20058;-84
2021/11/30 12:09:46;;;;;;;3.97;0.30;;;8.30;99.90;;;;;;5011059;28;20087;-82
2021/11/30 12:12:22;;;;;;;7.53;1.20;;;8.30;99.90;;;;;;5006009;28;20030;-82
2021/11/30 12:14:50;;;;;;;7.72;0.40;;;8.30;99.90;;;;;;4989563;28;20037;-82
2021/11/30 12:17:25;;;;;;;9.25;1.27;;;8.30;99.90;;;;;;4995358;28;20433;-83
2021/11/30 12:20:07;;;;;;;3.88;1.17;;;8.30;99.90;;;;;;5015306;28;20451;-82
2021/11/30 12:22:57;;;;;;;3.42;0.38;;;8.30;99.90;;;;;;5004204;28;20037;-82
2021/11/30 12:25:26;;;;;;;1.55;0.20;;;8.30;99.90;;;;;;4991911;28;20300;-82
2021/11/30 12:27:53;;;;;;;7.57;0.50;;;8.40;99.90;;;;;;5032104;28;20034;-82
2021/11/30 12:30:43;;;;;;;17.23;4.65;;;8.30;99.90;;;;;;5027110;28;20093;-82
2021/11/30 12:33:19;;;;;;;6.32;0.60;;;8.30;99.90;;;;;;5015506;28;20041;-81
2021/11/30 12:35:58;;;;;;;8.65;1.17;;;8.30;99.90;;;;;;5004802;28;20037;-83
2021/11/30 12:38:25;;;;;;;4.57;0.40;;;8.30;99.90;;;;;;5022229;28;20026;-82
2021/11/30 12:40:52;;;;;;;4.38;0.50;;;8.30;99.90;;;;;;5007738;28;20033;-81
2021/11/30 12:43:24;;;;;;;2.97;0.30;;;8.30;99.90;;;;;;5031309;28;20049;-82
2021/11/30 12:45:52;;;;;;;3.72;0.22;;;8.30;99.90;;;;;;5005072;28;20029;-81
2021/11/30 12:48:39;;;;;;;9.27;0.85;;;8.30;99.90;;;;;;5001255;28;20092;-82
2021/11/30 12:51:25;;;;;;;6.85;0.65;;;8.30;99.90;;;;;;4993143;28;20038;-82
2021/11/30 12:53:52;;;;;;;5.20;1.17;;;8.30;99.90;;;;;;5011241;28;20176;-81
2021/11/30 12:56:45;;;;;;;6.00;0.70;;;8.30;99.90;;;;;;5005080;28;20033;-82
2021/11/30 12:59:12;;;;;;;9.30;0.93;;;8.30;99.90;;;;;;5007793;28;20145;-82
2021/11/30 13:01:39;;;;;;;15.35;2.72;;;8.30;99.90;;;;;;5007737;28;20120;-83
2021/11/30 13:04:29;;;;;;;21.38;5.40;;;8.30;99.90;;;;;;5017684;28;20025;-81